createdAt,value
2019-01-06T00:00:30.296Z,28.40
2019-01-06T00:03:29.601Z,27.80
2019-01-06T00:06:16.829Z,30.85
2019-01-06T00:09:03.260Z,28.50
2019-01-06T00:11:59.023Z,27.05
2019-01-06T00:14:52.131Z,26.87
2019-01-06T00:17:44.247Z,28.40
2019-01-06T00:20:30.472Z,26.62
2019-01-06T00:23:17.521Z,28.62
2019-01-06T00:26:04.693Z,25.32
2019-01-06T00:29:06.385Z,26.17
2019-01-06T00:32:02.459Z,23.32
2019-01-06T00:35:04.700Z,22.22
2019-01-06T00:38:11.051Z,25.72
2019-01-06T00:41:10.430Z,26.75
2019-01-06T00:43:57.843Z,26.45
2019-01-06T00:46:43.524Z,24.10
2019-01-06T00:49:30.969Z,23.65
2019-01-06T00:52:16.656Z,26.25
2019-01-06T00:55:12.565Z,26.27
2019-01-06T00:57:58.836Z,23.98
2019-01-06T01:00:44.527Z,24.43
2019-01-06T01:03:32.844Z,24.72
2019-01-06T01:06:24.125Z,21.37
2019-01-06T01:09:13.719Z,22.70
2019-01-06T01:12:06.760Z,19.92
2019-01-06T01:15:00.798Z,18.92
2019-01-06T01:17:48.313Z,20.85
2019-01-06T01:20:29.403Z,17.25
2019-01-06T01:23:19.454Z,19.37
2019-01-06T01:26:06.592Z,18.50
2019-01-06T01:28:53.561Z,18.07
2019-01-06T01:31:59.511Z,18.57
2019-01-06T01:34:52.186Z,19.00
2019-01-06T01:37:39.845Z,17.55
2019-01-06T01:40:37.017Z,17.20
2019-01-06T01:43:33.174Z,18.42
2019-01-06T01:46:19.038Z,18.25
2019-01-06T01:49:22.365Z,17.37
2019-01-06T01:52:23.452Z,15.65
2019-01-06T01:55:17.669Z,20.72
2019-01-06T01:58:14.960Z,19.45
2019-01-06T02:01:05.756Z,16.12
2019-01-06T02:03:50.879Z,15.55
2019-01-06T02:06:57.660Z,15.30
2019-01-06T02:09:43.453Z,15.20
2019-01-06T02:12:49.015Z,15.68
2019-01-06T02:15:47.628Z,16.02
2019-01-06T02:18:34.297Z,15.10
2019-01-06T02:21:33.441Z,16.82
2019-01-06T02:24:29.657Z,14.80
2019-01-06T02:27:15.283Z,14.85
2019-01-06T02:30:20.708Z,15.05
2019-01-06T02:33:06.512Z,15.55
2019-01-06T02:35:57.557Z,16.35
2019-01-06T02:38:51.632Z,15.40
2019-01-06T02:41:38.914Z,16.02
2019-01-06T02:44:26.186Z,18.10
2019-01-06T02:47:13.575Z,17.20
2019-01-06T02:50:05.642Z,16.30
2019-01-06T02:53:08.295Z,18.30
2019-01-06T02:55:57.497Z,16.48
2019-01-06T02:58:50.578Z,16.73
2019-01-06T03:01:52.332Z,17.82
2019-01-06T03:04:43.740Z,16.23
2019-01-06T03:07:50.396Z,15.40
2019-01-06T03:10:52.496Z,16.80
2019-01-06T03:13:45.699Z,17.55
2019-01-06T03:16:42.884Z,17.48
2019-01-06T03:19:45.159Z,17.27
2019-01-06T03:22:40.366Z,16.07
2019-01-06T03:25:27.896Z,17.77
2019-01-06T03:28:21.032Z,15.88
2019-01-06T03:31:08.304Z,14.78
2019-01-06T03:33:55.658Z,16.15
2019-01-06T03:36:49.876Z,18.02
2019-01-06T03:39:35.874Z,18.65
2019-01-06T03:42:35.340Z,17.30
2019-01-06T03:45:39.568Z,18.07
2019-01-06T03:48:35.732Z,17.25
2019-01-06T03:51:41.174Z,18.50
2019-01-06T03:54:28.616Z,18.90
2019-01-06T03:57:14.455Z,17.17
2019-01-06T04:00:07.411Z,18.52
2019-01-06T04:03:00.728Z,18.27
2019-01-06T04:05:54.641Z,20.85
2019-01-06T04:08:49.370Z,19.85
2019-01-06T04:11:39.764Z,21.10
2019-01-06T04:14:31.171Z,21.15
2019-01-06T04:17:35.394Z,22.30
2019-01-06T04:20:22.851Z,24.00
2019-01-06T04:23:12.157Z,22.05
2019-01-06T04:26:07.984Z,23.30
2019-01-06T04:28:55.057Z,25.52
2019-01-06T04:31:45.062Z,23.95
2019-01-06T04:34:31.300Z,24.07
2019-01-06T04:37:21.015Z,23.62
2019-01-06T04:40:07.174Z,27.48
2019-01-06T04:42:53.234Z,26.02
2019-01-06T04:45:39.156Z,25.90
2019-01-06T04:48:25.447Z,25.08
2019-01-06T04:51:04.340Z,26.12
2019-01-06T04:53:51.749Z,25.48
2019-01-06T04:56:47.882Z,29.65
2019-01-06T04:59:50.068Z,25.32
2019-01-06T05:02:35.648Z,25.15
2019-01-06T05:05:30.748Z,27.58
2019-01-06T05:08:22.573Z,24.82
2019-01-06T05:11:12.566Z,26.80
2019-01-06T05:13:58.582Z,30.02
2019-01-06T05:16:46.017Z,30.12
2019-01-06T05:19:33.356Z,28.35
2019-01-06T05:22:38.542Z,28.83
2019-01-06T05:25:25.701Z,32.10
2019-01-06T05:28:25.342Z,33.25
2019-01-06T05:31:24.391Z,34.78
2019-01-06T05:34:11.814Z,35.75
2019-01-06T05:36:58.365Z,31.45
2019-01-06T05:39:48.765Z,32.48
2019-01-06T05:42:37.560Z,32.42
2019-01-06T05:45:15.335Z,33.20
2019-01-06T05:48:01.245Z,37.58
2019-01-06T05:50:49.992Z,35.63
2019-01-06T05:53:40.179Z,33.40
2019-01-06T05:56:18.267Z,27.80
2019-01-06T05:59:23.465Z,27.32
2019-01-06T06:02:21.297Z,26.02
2019-01-06T06:05:11.139Z,25.95
2019-01-06T06:08:08.516Z,22.60
2019-01-06T06:11:01.460Z,26.33
2019-01-06T06:13:47.073Z,25.32
2019-01-06T06:16:32.446Z,23.73
2019-01-06T06:19:25.819Z,22.25
2019-01-06T06:22:15.666Z,20.50
2019-01-06T06:25:12.210Z,22.40
2019-01-06T06:27:59.329Z,19.75
2019-01-06T06:30:55.246Z,16.52
2019-01-06T06:33:41.262Z,17.45
2019-01-06T06:36:28.580Z,17.77
2019-01-06T06:39:14.722Z,15.05
2019-01-06T06:42:07.600Z,16.00
2019-01-06T06:44:51.019Z,13.18
2019-01-06T06:47:47.377Z,13.80
2019-01-06T06:50:34.439Z,11.55
2019-01-06T06:53:20.212Z,10.48
2019-01-06T06:56:11.895Z,10.20
2019-01-06T06:59:02.844Z,7.90
2019-01-06T07:02:27.259Z,7.80
2019-01-06T07:05:14.530Z,9.23
2019-01-06T07:08:08.072Z,9.00
2019-01-06T07:11:02.299Z,10.13
2019-01-06T07:13:47.700Z,8.98
2019-01-06T07:17:48.624Z,7.30
2019-01-06T07:20:30.255Z,6.67
2019-01-06T07:23:16.194Z,10.85
2019-01-06T07:26:10.206Z,8.75
2019-01-06T07:28:55.834Z,9.03
2019-01-06T07:31:43.438Z,8.60
2019-01-06T07:34:29.852Z,7.33
2019-01-06T07:37:15.666Z,5.55
2019-01-06T07:40:09.390Z,6.67
2019-01-06T07:42:56.017Z,7.60
2019-01-06T07:46:10.488Z,7.70
2019-01-06T07:49:03.318Z,9.40
2019-01-06T07:51:53.405Z,7.97
2019-01-06T07:54:49.797Z,7.47
2019-01-06T07:57:28.058Z,8.13
2019-01-06T08:00:15.326Z,8.15
2019-01-06T08:03:09.306Z,8.65
2019-01-06T08:05:53.604Z,7.72
2019-01-06T08:09:01.293Z,6.72
2019-01-06T08:11:47.013Z,6.90
2019-01-06T08:14:43.639Z,8.10
2019-01-06T08:17:29.341Z,8.88
2019-01-06T08:20:19.606Z,10.25
2019-01-06T08:23:07.245Z,9.50
2019-01-06T08:25:53.393Z,10.28
2019-01-06T08:28:41.978Z,10.10
2019-01-06T08:31:47.490Z,9.35
2019-01-06T08:34:34.961Z,8.05
2019-01-06T08:37:22.228Z,8.35
2019-01-06T08:40:16.773Z,7.50
2019-01-06T08:43:03.177Z,8.93
2019-01-06T08:45:59.113Z,10.45
2019-01-06T08:49:02.194Z,9.43
2019-01-06T08:51:47.980Z,11.08
2019-01-06T08:54:36.068Z,11.35
2019-01-06T08:57:21.943Z,10.30
2019-01-06T09:00:12.978Z,9.20
2019-01-06T09:03:09.033Z,10.90
2019-01-06T09:05:54.491Z,7.70
2019-01-06T09:08:38.780Z,9.18
2019-01-06T09:11:22.359Z,8.53
2019-01-06T09:13:56.927Z,10.55
2019-01-06T09:16:43.349Z,9.35
2019-01-06T09:19:22.022Z,10.78
2019-01-06T09:22:11.248Z,8.90
2019-01-06T09:25:01.358Z,9.95
2019-01-06T09:27:54.875Z,9.65
2019-01-06T09:30:44.972Z,9.88
2019-01-06T09:33:31.472Z,11.05
2019-01-06T09:36:28.647Z,8.48
2019-01-06T09:39:14.581Z,10.35
2019-01-06T09:41:58.333Z,11.40
2019-01-06T09:44:48.774Z,10.95
2019-01-06T09:47:48.550Z,10.68
2019-01-06T09:50:42.292Z,9.90
2019-01-06T09:53:29.751Z,10.30
2019-01-06T09:56:15.688Z,13.28
2019-01-06T09:59:01.507Z,9.50
2019-01-06T10:01:55.966Z,12.53
2019-01-06T10:04:47.657Z,11.00
2019-01-06T10:07:50.118Z,11.03
2019-01-06T10:10:34.644Z,11.95
2019-01-06T10:13:20.697Z,11.28
2019-01-06T10:16:08.593Z,10.70
2019-01-06T10:19:05.521Z,13.05
2019-01-06T10:21:53.950Z,12.93
2019-01-06T10:24:52.341Z,11.15
2019-01-06T10:27:41.624Z,10.45
2019-01-06T10:30:27.727Z,28.62
2019-01-06T10:33:19.896Z,14.05
2019-01-06T10:36:08.143Z,11.28
2019-01-06T10:38:54.115Z,11.78
2019-01-06T10:41:47.279Z,12.90
2019-01-06T10:44:31.490Z,13.10
2019-01-06T10:47:21.630Z,13.45
2019-01-06T10:50:14.879Z,13.95
2019-01-06T10:53:01.333Z,12.35
2019-01-06T10:56:04.768Z,12.78
2019-01-06T10:58:58.211Z,11.60
2019-01-06T11:01:54.754Z,8.53
2019-01-06T11:04:42.316Z,9.75
2019-01-06T11:07:28.496Z,9.75
2019-01-06T11:10:18.702Z,9.65
2019-01-06T11:13:23.996Z,10.58
2019-01-06T11:16:11.117Z,8.45
2019-01-06T11:18:57.959Z,8.93
2019-01-06T11:21:51.474Z,9.40
2019-01-06T11:24:38.423Z,8.48
2019-01-06T11:27:24.623Z,8.68
2019-01-06T11:30:12.531Z,10.30
2019-01-06T11:32:58.799Z,8.15
2019-01-06T11:35:46.718Z,9.75
2019-01-06T11:38:32.848Z,20.32
2019-01-06T11:41:18.285Z,14.83
2019-01-06T11:44:04.234Z,14.80
2019-01-06T11:46:49.351Z,11.55
2019-01-06T11:49:43.581Z,21.62
2019-01-06T11:52:30.243Z,27.77
2019-01-06T11:55:29.813Z,10.70
2019-01-06T11:58:25.882Z,9.80
2019-01-06T12:01:21.065Z,8.75
2019-01-06T12:04:21.120Z,7.60
2019-01-06T12:07:16.128Z,10.85
2019-01-06T12:10:06.258Z,6.00
2019-01-06T12:12:59.567Z,7.92
2019-01-06T12:15:43.905Z,8.55
2019-01-06T12:18:30.815Z,7.42
2019-01-06T12:21:17.127Z,7.50
2019-01-06T12:24:10.629Z,7.65
2019-01-06T12:26:58.502Z,7.60
2019-01-06T12:29:58.588Z,6.42
2019-01-06T12:32:46.221Z,6.55
2019-01-06T12:35:42.682Z,11.60
2019-01-06T12:38:38.339Z,9.60
2019-01-06T12:41:20.037Z,16.60
2019-01-06T12:44:13.690Z,16.80
2019-01-06T12:46:59.613Z,11.45
2019-01-06T12:49:58.433Z,10.32
2019-01-06T12:52:42.749Z,8.83
2019-01-06T12:55:38.030Z,18.17
2019-01-06T12:58:23.846Z,24.60
2019-01-06T13:01:11.280Z,15.75
2019-01-06T13:03:56.642Z,16.00
2019-01-06T13:06:43.755Z,20.92
2019-01-06T13:09:31.551Z,12.33
2019-01-06T13:12:20.546Z,16.17
2019-01-06T13:15:07.883Z,13.13
2019-01-06T13:17:59.215Z,13.90
2019-01-06T13:20:46.439Z,14.20
2019-01-06T13:23:42.825Z,13.15
2019-01-06T13:26:28.393Z,10.25
2019-01-06T13:29:15.914Z,10.80
2019-01-06T13:32:01.583Z,11.20
2019-01-06T13:35:03.993Z,13.10
2019-01-06T13:40:40.089Z,11.70
2019-01-06T13:43:39.389Z,11.83
2019-01-06T13:46:25.724Z,11.45
2019-01-06T13:49:15.779Z,11.43
2019-01-06T13:52:05.668Z,12.68
2019-01-06T13:54:53.238Z,13.65
2019-01-06T13:57:39.829Z,10.23
2019-01-06T14:00:26.378Z,10.20
2019-01-06T14:03:06.608Z,11.28
2019-01-06T14:05:52.306Z,11.45
2019-01-06T14:08:45.630Z,11.28
2019-01-06T14:11:42.058Z,36.25
2019-01-06T14:14:27.322Z,21.15
2019-01-06T14:17:20.171Z,15.48
2019-01-06T14:20:06.219Z,17.20
2019-01-06T14:23:05.072Z,20.12
2019-01-06T14:25:50.970Z,11.20
2019-01-06T14:28:56.477Z,9.35
2019-01-06T14:31:44.657Z,12.30
2019-01-06T14:34:26.050Z,13.40
2019-01-06T14:37:19.548Z,15.35
2019-01-06T14:40:07.364Z,13.00
2019-01-06T14:42:53.482Z,15.88
2019-01-06T14:45:46.884Z,9.40
2019-01-06T14:48:45.919Z,10.00
2019-01-06T14:51:45.146Z,10.48
2019-01-06T14:54:47.254Z,10.38
2019-01-06T14:57:23.754Z,10.98
2019-01-06T15:00:11.594Z,10.53
2019-01-06T15:03:01.828Z,11.33
2019-01-06T15:05:47.985Z,12.95
2019-01-06T15:08:38.459Z,9.85
2019-01-06T15:11:23.941Z,11.90
2019-01-06T15:14:20.357Z,10.93
2019-01-06T15:17:19.996Z,9.48
2019-01-06T15:20:10.076Z,11.08
2019-01-06T15:22:53.615Z,9.28
2019-01-06T15:25:48.220Z,12.15
2019-01-06T15:28:36.131Z,11.03
2019-01-06T15:31:26.342Z,12.63
2019-01-06T15:34:12.145Z,12.80
2019-01-06T15:37:02.988Z,12.78
2019-01-06T15:39:48.524Z,14.95
2019-01-06T15:42:37.048Z,14.53
2019-01-06T15:45:32.875Z,13.72
2019-01-06T15:48:23.366Z,12.98
2019-01-06T15:51:25.437Z,12.40
2019-01-06T15:54:11.150Z,12.58
2019-01-06T15:57:17.693Z,12.45
2019-01-06T16:00:07.783Z,12.90
2019-01-06T16:03:04.818Z,12.00
2019-01-06T16:05:52.119Z,13.22
2019-01-06T16:08:41.840Z,13.45
2019-01-06T16:11:26.301Z,12.82
2019-01-06T16:14:12.116Z,11.73
2019-01-06T16:16:59.412Z,12.30
2019-01-06T16:19:44.851Z,12.23
2019-01-06T16:22:39.205Z,10.75
2019-01-06T16:25:26.233Z,12.80
2019-01-06T16:28:25.534Z,11.65
2019-01-06T16:31:11.402Z,13.95
2019-01-06T16:33:58.622Z,14.90
2019-01-06T16:36:46.033Z,13.85
2019-01-06T16:39:42.367Z,13.83
2019-01-06T16:42:46.049Z,12.45
2019-01-06T16:45:53.147Z,14.73
2019-01-06T16:48:39.479Z,11.80
2019-01-06T16:51:38.625Z,11.43
2019-01-06T16:54:24.521Z,11.18
2019-01-06T16:57:15.708Z,12.50
2019-01-06T17:00:07.338Z,12.65
2019-01-06T17:02:58.193Z,14.38
2019-01-06T17:05:48.435Z,11.88
2019-01-06T17:08:39.504Z,15.75
2019-01-06T17:11:31.277Z,16.67
2019-01-06T17:14:18.894Z,13.28
2019-01-06T17:17:08.841Z,16.67
2019-01-06T17:20:03.726Z,16.25
2019-01-06T17:22:50.700Z,20.48
2019-01-06T17:25:48.539Z,24.95
2019-01-06T17:28:47.925Z,30.37
2019-01-06T17:31:43.006Z,43.15
2019-01-06T17:34:27.924Z,39.58
2019-01-06T17:37:18.706Z,31.23
2019-01-06T17:40:09.842Z,33.00
2019-01-06T17:42:55.432Z,32.67
2019-01-06T17:45:51.905Z,35.23
2019-01-06T17:48:38.274Z,33.48
2019-01-06T17:51:34.235Z,30.95
2019-01-06T17:54:21.374Z,26.93
2019-01-06T17:57:09.122Z,24.63
2019-01-06T18:00:14.189Z,24.65
2019-01-06T18:02:58.958Z,23.67
2019-01-06T18:05:46.715Z,27.32
2019-01-06T18:08:32.467Z,22.48
2019-01-06T18:11:20.667Z,21.30
2019-01-06T18:14:07.810Z,21.65
2019-01-06T18:17:10.250Z,19.57
2019-01-06T18:19:57.107Z,15.25
2019-01-06T18:22:43.446Z,16.35
2019-01-06T18:25:31.884Z,14.70
2019-01-06T18:28:17.966Z,12.25
2019-01-06T18:31:14.914Z,12.18
2019-01-06T18:34:04.804Z,13.78
2019-01-06T18:37:04.173Z,11.78
2019-01-06T18:39:41.015Z,13.58
2019-01-06T18:42:40.262Z,11.53
2019-01-06T18:45:36.488Z,14.07
2019-01-06T18:48:37.157Z,15.23
2019-01-06T18:51:24.211Z,13.78
2019-01-06T18:54:11.168Z,15.20
2019-01-06T18:56:58.392Z,16.37
2019-01-06T18:59:39.344Z,15.40
2019-01-06T19:02:35.581Z,14.07
2019-01-06T19:05:23.928Z,12.88
2019-01-06T19:08:14.075Z,12.78
2019-01-06T19:11:01.611Z,11.00
2019-01-06T19:13:48.373Z,8.68
2019-01-06T19:16:45.532Z,9.43
2019-01-06T19:19:44.404Z,9.30
2019-01-06T19:22:49.961Z,8.80
2019-01-06T19:25:43.243Z,8.33
2019-01-06T19:28:30.432Z,10.30
2019-01-06T19:31:16.599Z,9.93
2019-01-06T19:34:03.448Z,9.88
2019-01-06T19:37:02.862Z,8.23
2019-01-06T19:39:49.955Z,8.85
2019-01-06T19:42:38.902Z,8.60
2019-01-06T19:45:24.649Z,7.72
2019-01-06T19:48:16.053Z,8.80
2019-01-06T19:51:03.294Z,10.43
2019-01-06T19:53:56.255Z,7.45
2019-01-06T19:56:46.288Z,7.67
2019-01-06T19:59:39.776Z,8.73
2019-01-06T20:02:26.235Z,8.95
2019-01-06T20:05:28.944Z,8.25
2019-01-06T20:08:15.155Z,8.20
2019-01-06T20:11:11.893Z,8.15
2019-01-06T20:13:57.472Z,7.60
2019-01-06T20:16:53.321Z,8.90
2019-01-06T20:19:38.909Z,7.97
2019-01-06T20:22:24.597Z,8.83
2019-01-06T20:25:22.396Z,6.78
2019-01-06T20:28:09.579Z,7.83
2019-01-06T20:30:56.255Z,9.15
2019-01-06T20:33:50.828Z,9.33
2019-01-06T20:36:36.718Z,7.87
2019-01-06T20:39:23.913Z,8.48
2019-01-06T20:42:10.005Z,6.65
2019-01-06T20:44:55.990Z,6.92
2019-01-06T20:47:42.405Z,9.00
2019-01-06T20:50:36.238Z,8.13
2019-01-06T20:53:15.443Z,7.03
2019-01-06T20:56:01.347Z,9.13
2019-01-06T20:58:46.765Z,7.87
2019-01-06T21:01:32.900Z,6.10
2019-01-06T21:04:23.195Z,7.42
2019-01-06T21:07:09.209Z,7.10
2019-01-06T21:10:05.449Z,7.83
2019-01-06T21:12:51.241Z,6.83
2019-01-06T21:15:37.404Z,6.97
2019-01-06T21:18:30.392Z,6.75
2019-01-06T21:21:17.802Z,8.10
2019-01-06T21:24:07.870Z,6.80
2019-01-06T21:26:55.289Z,6.67
2019-01-06T21:29:42.659Z,6.58
2019-01-06T21:32:34.349Z,6.20
2019-01-06T21:35:24.364Z,6.53
2019-01-06T21:38:04.801Z,6.65
2019-01-06T21:41:03.414Z,7.87
2019-01-06T21:44:00.030Z,7.92
2019-01-06T21:46:41.037Z,7.85
2019-01-06T21:49:28.341Z,8.50
2019-01-06T21:52:21.703Z,8.83
2019-01-06T21:55:08.644Z,10.13
2019-01-06T21:57:51.257Z,8.48
2019-01-06T22:00:38.765Z,9.43
2019-01-06T22:03:25.904Z,8.30
2019-01-06T22:06:06.024Z,7.55
2019-01-06T22:08:51.559Z,8.70
2019-01-06T22:11:54.936Z,8.88
2019-01-06T22:14:46.205Z,7.60
2019-01-06T22:17:39.106Z,7.00
2019-01-06T22:20:16.238Z,9.75
2019-01-06T22:23:10.620Z,8.18
2019-01-06T22:25:50.885Z,9.60
2019-01-06T22:28:56.578Z,9.75
2019-01-06T22:31:45.048Z,10.15
2019-01-06T22:34:35.225Z,12.10
2019-01-06T22:37:37.928Z,11.53
2019-01-06T22:40:25.314Z,10.53
2019-01-06T22:43:24.150Z,10.30
2019-01-06T22:46:17.029Z,7.92
2019-01-06T22:49:14.181Z,8.15
2019-01-06T22:52:00.872Z,9.70
2019-01-06T22:54:51.009Z,9.50
2019-01-06T22:57:41.122Z,9.28
2019-01-06T23:00:44.430Z,8.55
2019-01-06T23:03:31.980Z,9.48
2019-01-06T23:06:12.565Z,9.30
2019-01-06T23:08:56.181Z,10.28
2019-01-06T23:11:43.715Z,9.35
2019-01-06T23:14:31.043Z,8.50
2019-01-06T23:17:18.263Z,8.95
2019-01-06T23:20:15.358Z,7.03
2019-01-06T23:22:59.426Z,7.00
2019-01-06T23:25:46.138Z,7.90
2019-01-06T23:28:51.786Z,7.50
2019-01-06T23:31:44.979Z,5.58
2019-01-06T23:34:25.434Z,5.60
2019-01-06T23:37:18.254Z,7.40
2019-01-06T23:40:04.250Z,12.55
2019-01-06T23:42:50.705Z,7.72
2019-01-06T23:45:53.000Z,7.25
2019-01-06T23:48:51.714Z,7.75
2019-01-06T23:51:36.131Z,7.65
2019-01-06T23:54:29.455Z,7.40
2019-01-06T23:57:15.183Z,6.70
